Time;durP1;ratioP1;P1;durP2;ratioP2;P2;SDS_P1;SDS_P2;PMS_P1;PMS_P2;Temp;Humidity;BMP_temperature;BMP_pressure;BME280_temperature;BME280_humidity;BME280_pressure;Samples;Min_cycle;Max_cycle;Signal;HPM_P1;HPM_P2
2023/05/21 00:06:08;;;;;;;22.1;19.8;;;;;;;-132.3;0;77350;;;;
2023/05/21 00:16:09;;;;;;;22.1;19.8;;;;;;;-132.3;0;77350;;;;
2023/05/21 00:27:08;;;;;;;22.1;19.8;;;;;;;-132.3;0;77340;;;;
2023/05/21 00:38:08;;;;;;;24.1;21.7;;;;;;;-132.3;0;77330;;;;
2023/05/21 00:48:08;;;;;;;24.1;21.7;;;;;;;-132.3;0;77320;;;;
2023/05/21 00:58:09;;;;;;;24.1;21.7;;;;;;;-132.3;0;77320;;;;
2023/05/21 01:08:09;;;;;;;23;20.7;;;;;;;-132.3;0;77320;;;;
2023/05/21 01:18:08;;;;;;;23;20.7;;;;;;;-132.3;0;77320;;;;
2023/05/21 01:29:11;;;;;;;23;20.7;;;;;;;-132.3;0;77310;;;;
2023/05/21 01:39:08;;;;;;;26.2;23.6;;;;;;;-132.3;0;77300;;;;
2023/05/21 01:49:08;;;;;;;26.2;23.6;;;;;;;-132.3;0;77300;;;;
2023/05/21 02:00:09;;;;;;;26.2;23.6;;;;;;;-132.3;0;77300;;;;
2023/05/21 02:11:08;;;;;;;28.9;25.4;;;;;;;-132.3;0;77310;;;;
2023/05/21 02:21:09;;;;;;;28.9;25.4;;;;;;;-132.3;0;77310;;;;
2023/05/21 02:31:08;;;;;;;28.9;25.4;;;;;;;-132.3;0;77320;;;;
2023/05/21 02:42:09;;;;;;;31.9;28.1;;;;;;;-132.3;0;77330;;;;
2023/05/21 02:53:08;;;;;;;31.9;28.1;;;;;;;-132.3;0;77350;;;;
2023/05/21 03:03:09;;;;;;;29.6;26;;;;;;;-132.3;0;77370;;;;
2023/05/21 03:13:08;;;;;;;29.6;26;;;;;;;-132.3;0;77380;;;;
2023/05/21 03:23:11;;;;;;;29.6;26;;;;;;;-132.3;0;77400;;;;
2023/05/21 03:34:09;;;;;;;27.5;24.7;;;;;;;-132.3;0;77410;;;;
2023/05/21 03:45:09;;;;;;;27.5;24.7;;;;;;;-132.3;0;77400;;;;
2023/05/21 03:56:09;;;;;;;27.5;24.7;;;;;;;-132.3;0;77380;;;;
2023/05/21 04:07:13;;;;;;;27.2;24.5;;;;;;;-132.3;0;77360;;;;
2023/05/21 04:18:09;;;;;;;27.2;24.5;;;;;;;-132.3;0;77330;;;;
2023/05/21 04:28:09;;;;;;;27.2;24.5;;;;;;;-132.3;0;77310;;;;
2023/05/21 04:39:09;;;;;;;26;23.2;;;;;;;-132.3;0;77280;;;;
2023/05/21 04:50:09;;;;;;;26;23.2;;;;;;;-132.3;0;77230;;;;
2023/05/21 05:00:09;;;;;;;26;23.2;;;;;;;-132.3;0;77200;;;;
2023/05/21 05:11:09;;;;;;;22.9;20.5;;;;;;;-132.3;0;77180;;;;
2023/05/21 05:21:09;;;;;;;22.9;20.5;;;;;;;-132.3;0;77160;;;;
2023/05/21 05:32:09;;;;;;;22.9;20.5;;;;;;;-132.3;0;77140;;;;
2023/05/21 05:42:09;;;;;;;22.6;19.8;;;;;;;-132.3;0;77100;;;;
2023/05/21 05:52:09;;;;;;;22.6;19.8;;;;;;;-132.3;0;77060;;;;
2023/05/21 06:03:09;;;;;;;18;14.9;;;;;;;-132.3;0;77020;;;;
2023/05/21 06:13:09;;;;;;;18;14.9;;;;;;;-132.3;0;76980;;;;
2023/05/21 06:23:09;;;;;;;18;14.9;;;;;;;-132.3;0;76940;;;;
2023/05/21 06:34:10;;;;;;;17.1;13;;;;;;;-132.3;0;76910;;;;
2023/05/21 06:45:09;;;;;;;17.1;13;;;;;;;-132.3;0;76860;;;;
2023/05/21 06:55:09;;;;;;;17.1;13;;;;;;;-132.3;0;76840;;;;
2023/05/21 07:06:09;;;;;;;15.2;11.8;;;;;;;-132.3;0;76780;;;;
2023/05/21 07:17:09;;;;;;;15.2;11.8;;;;;;;-132.3;0;76730;;;;
2023/05/21 07:28:09;;;;;;;15.2;11.8;;;;;;;-132.3;0;76720;;;;
2023/05/21 07:39:09;;;;;;;12.8;10.5;;;;;;;-132.3;0;76680;;;;
2023/05/21 07:50:09;;;;;;;12.8;10.5;;;;;;;-132.3;0;76610;;;;
2023/05/21 08:00:09;;;;;;;12.8;10.5;;;;;;;-132.3;0;76580;;;;
2023/05/21 08:11:09;;;;;;;12.7;9.3;;;;;;;-132.3;0;76520;;;;
2023/05/21 08:21:09;;;;;;;12.7;9.3;;;;;;;-132.3;0;76500;;;;
2023/05/21 08:32:09;;;;;;;12.7;9.3;;;;;;;-132.3;0;76430;;;;
2023/05/21 08:42:09;;;;;;;11.8;6.8;;;;;;;-132.3;0;76400;;;;
2023/05/21 08:52:09;;;;;;;11.8;6.8;;;;;;;-132.3;0;76370;;;;
2023/05/21 09:03:10;;;;;;;12.9;6.7;;;;;;;-132.3;0;76330;;;;
2023/05/21 09:13:09;;;;;;;12.9;6.7;;;;;;;-132.3;0;76290;;;;
2023/05/21 09:23:15;;;;;;;12.9;6.7;;;;;;;-132.3;0;76250;;;;
2023/05/21 09:33:10;;;;;;;12;6.2;;;;;;;-132.3;0;76210;;;;
2023/05/21 09:43:09;;;;;;;12;6.2;;;;;;;-132.3;0;76190;;;;
2023/05/21 09:53:09;;;;;;;12;6.2;;;;;;;-132.3;0;76210;;;;
2023/05/21 10:04:09;;;;;;;9.5;5.1;;;;;;;-132.3;0;76120;;;;
2023/05/21 10:15:09;;;;;;;9.5;5.1;;;;;;;-132.3;0;76100;;;;
2023/05/21 10:26:09;;;;;;;9.5;5.1;;;;;;;-132.3;0;76110;;;;
2023/05/21 10:37:09;;;;;;;6.7;3.9;;;;;;;-132.3;0;76090;;;;
2023/05/21 10:47:09;;;;;;;6.7;3.9;;;;;;;-132.3;0;76060;;;;
2023/05/21 10:57:09;;;;;;;6.7;3.9;;;;;;;-132.3;0;76030;;;;
2023/05/21 11:08:09;;;;;;;11.1;4.9;;;;;;;-132.3;0;75990;;;;
2023/05/21 11:18:09;;;;;;;11.1;4.9;;;;;;;-132.3;0;75960;;;;
2023/05/21 11:28:09;;;;;;;11.1;4.9;;;;;;;-132.3;0;75940;;;;
2023/05/21 11:38:09;;;;;;;7.1;4.4;;;;;;;-132.3;0;75930;;;;
2023/05/21 11:48:10;;;;;;;7.1;4.4;;;;;;;-132.3;0;75940;;;;
2023/05/21 11:58:10;;;;;;;7.1;4.4;;;;;;;-132.3;0;75930;;;;
2023/05/21 12:09:09;;;;;;;7.1;4.1;;;;;;;-132.3;0;75920;;;;
2023/05/21 12:20:09;;;;;;;7.1;4.1;;;;;;;-132.3;0;75900;;;;
2023/05/21 12:30:09;;;;;;;7.1;4.1;;;;;;;-132.3;0;75930;;;;
2023/05/21 12:41:09;;;;;;;7.3;3.7;;;;;;;-132.3;0;75880;;;;
2023/05/21 12:52:09;;;;;;;7.3;3.7;;;;;;;-132.3;0;75890;;;;
2023/05/21 13:03:10;;;;;;;7.3;3.9;;;;;;;-132.3;0;75840;;;;
2023/05/21 13:13:09;;;;;;;7.3;3.9;;;;;;;-132.3;0;75850;;;;
2023/05/21 13:23:09;;;;;;;7.3;3.9;;;;;;;-132.3;0;75800;;;;
2023/05/21 13:34:09;;;;;;;6.4;3.7;;;;;;;-132.3;0;75820;;;;
2023/05/21 13:45:09;;;;;;;6.4;3.7;;;;;;;-132.3;0;75820;;;;
2023/05/21 13:56:09;;;;;;;6.4;3.7;;;;;;;-132.3;0;75850;;;;
2023/05/21 14:06:10;;;;;;;7.4;3.4;;;;;;;-132.3;0;75800;;;;
2023/05/21 14:17:09;;;;;;;7.4;3.4;;;;;;;-132.3;0;75800;;;;
2023/05/21 14:27:09;;;;;;;7.4;3.4;;;;;;;-132.3;0;75790;;;;
2023/05/21 14:37:09;;;;;;;6.9;3;;;;;;;-132.3;0;75800;;;;
2023/05/21 14:47:09;;;;;;;6.9;3;;;;;;;-132.3;0;75770;;;;
2023/05/21 14:58:09;;;;;;;6.9;3;;;;;;;-132.3;0;75740;;;;
2023/05/21 15:09:09;;;;;;;7.3;3.5;;;;;;;-132.3;0;75490;;;;
2023/05/21 15:20:09;;;;;;;7.3;3.5;;;;;;;-132.3;0;75330;;;;
2023/05/21 15:30:09;;;;;;;7.3;3.5;;;;;;;-132.3;0;75160;;;;
2023/05/21 15:40:09;;;;;;;6.4;2.4;;;;;;;-132.3;0;75160;;;;
2023/05/21 15:51:09;;;;;;;6.4;2.4;;;;;;;-132.3;0;75200;;;;
2023/05/21 16:01:09;;;;;;;6.4;2.4;;;;;;;-132.3;0;75200;;;;
2023/05/21 16:12:09;;;;;;;5.7;2.5;;;;;;;-132.3;0;75480;;;;
2023/05/21 16:23:10;;;;;;;5.7;2.5;;;;;;;-132.3;0;75510;;;;
2023/05/21 16:33:11;;;;;;;5.7;2.5;;;;;;;-132.3;0;75530;;;;
2023/05/21 16:44:09;;;;;;;6.4;3;;;;;;;-132.3;0;75400;;;;
2023/05/21 16:54:09;;;;;;;6.4;3;;;;;;;-132.3;0;75430;;;;
2023/05/21 17:04:09;;;;;;;5.7;2.8;;;;;;;-132.3;0;75440;;;;
2023/05/21 17:14:09;;;;;;;5.7;2.8;;;;;;;-132.3;0;75720;;;;
2023/05/21 17:25:09;;;;;;;5.7;2.8;;;;;;;-132.3;0;75900;;;;
2023/05/21 17:35:09;;;;;;;6.1;3.1;;;;;;;-132.3;0;75990;;;;
2023/05/21 17:45:09;;;;;;;6.1;3.1;;;;;;;-132.3;0;75990;;;;
2023/05/21 17:56:10;;;;;;;6.1;3.1;;;;;;;-132.3;0;76130;;;;
2023/05/21 18:07:09;;;;;;;6.2;3.2;;;;;;;-132.3;0;76230;;;;
2023/05/21 18:17:09;;;;;;;6.2;3.2;;;;;;;-132.3;0;76310;;;;
2023/05/21 18:27:11;;;;;;;6.2;3.2;;;;;;;-132.3;0;76410;;;;
2023/05/21 18:38:09;;;;;;;6.5;3.5;;;;;;;-132.3;0;76490;;;;
2023/05/21 18:49:09;;;;;;;6.5;3.5;;;;;;;-132.3;0;76570;;;;
2023/05/21 19:00:10;;;;;;;6.5;3.5;;;;;;;-132.3;0;76630;;;;
2023/05/21 19:10:09;;;;;;;6.4;3.4;;;;;;;-132.3;0;76670;;;;
2023/05/21 19:21:09;;;;;;;6.4;3.4;;;;;;;-132.3;0;76710;;;;
2023/05/21 19:32:09;;;;;;;6.4;3.4;;;;;;;-132.3;0;76750;;;;
2023/05/21 19:42:09;;;;;;;6.5;3.4;;;;;;;-132.3;0;76780;;;;
2023/05/21 19:52:10;;;;;;;6.5;3.4;;;;;;;-132.3;0;76810;;;;
2023/05/21 20:03:10;;;;;;;6.5;3.4;;;;;;;-132.3;0;76860;;;;
2023/05/21 20:13:09;;;;;;;7.5;4.2;;;;;;;-132.3;0;76880;;;;
2023/05/21 20:23:09;;;;;;;7.5;4.2;;;;;;;-132.3;0;76920;;;;
2023/05/21 20:34:11;;;;;;;8.6;4.7;;;;;;;-132.3;0;76960;;;;
2023/05/21 20:44:10;;;;;;;8.6;4.7;;;;;;;-132.3;0;77010;;;;
2023/05/21 20:55:11;;;;;;;8.6;4.7;;;;;;;-132.3;0;77050;;;;
2023/05/21 21:05:10;;;;;;;8.6;5.3;;;;;;;-132.3;0;77080;;;;
2023/05/21 21:16:09;;;;;;;8.6;5.3;;;;;;;-132.3;0;77120;;;;
2023/05/21 21:27:09;;;;;;;8.6;5.3;;;;;;;-132.3;0;77160;;;;
2023/05/21 21:37:09;;;;;;;7.9;5.2;;;;;;;-132.3;0;77190;;;;
2023/05/21 21:48:10;;;;;;;7.9;5.2;;;;;;;-132.3;0;77210;;;;
2023/05/21 21:58:10;;;;;;;7.9;5.2;;;;;;;-132.3;0;77240;;;;
2023/05/21 22:08:10;;;;;;;9.5;5.6;;;;;;;-132.3;0;77260;;;;
2023/05/21 22:18:10;;;;;;;9.5;5.6;;;;;;;-132.3;0;77300;;;;
2023/05/21 22:29:09;;;;;;;9.5;5.6;;;;;;;-132.3;0;77340;;;;
2023/05/21 22:40:09;;;;;;;8.6;5.4;;;;;;;-132.3;0;77370;;;;
2023/05/21 22:51:10;;;;;;;8.6;5.4;;;;;;;-132.3;0;77400;;;;
2023/05/21 23:02:09;;;;;;;8.6;5.4;;;;;;;-132.3;0;77420;;;;
2023/05/21 23:12:09;;;;;;;8.6;5.4;;;;;;;-132.3;0;77420;;;;
2023/05/21 23:22:09;;;;;;;8.6;5.4;;;;;;;-132.3;0;77450;;;;
2023/05/21 23:33:09;;;;;;;8.6;5.4;;;;;;;-132.3;0;77480;;;;
2023/05/21 23:44:11;;;;;;;9.9;3.7;;;;;;;-132.3;0;77510;;;;
2023/05/21 23:54:09;;;;;;;9.9;3.7;;;;;;;-132.3;0;77540;;;;
